Startpagina
METAR-TAF:

METAR-TAF

Vliegvelden :

Luchthaven Ouagadougou Internationaal

Ouagadougou, Burkina Faso

breedte: 12-21N, lengte: 001-31W, hoogte: 316 m

Actueel weer

Dit bericht is 39 minuten geleden gemaakt, om 13:00 UTC
Wind 11 kt uit het oostnoordoosten, variërend tussen het noordnoordoosten en het oostzuidoosten
Temperatuur 36°C
Vochtigheid 21%
Druk 1011 hPa
Zicht 10 km of meer
geen wolken onder 1500 m en geen cumulonimbus

METAR: DFFD 221300Z 06011KT 020V120 CAVOK 36/10 Q1011 NOSIG

Tijdstip: 13:39 (13:39 UTC)

Verwachting

Dit bericht is 2 uur en het 39 minuten geleden gemaakt, om 11:00 UTC
Verwachting geldig van 22 om 12 UTC tot 23 om 18 UTC
Wind 8 kt uit het noordoosten
Zicht: 8000 m
Kans 30% :
Tijdelijke
van 22 om 17 UTC tot 22 om 20 UTC
Zicht: 4000 m
Heiigheid
Tijdelijke
van 23 om 06 UTC tot 23 om 10 UTC
Zicht: 2500 m
Heiigheid

TAF: DFFD 221100Z 2212/2318 04008KT 8000 NSC PROB30 TEMPO 2217/2220 4000 HZ TEMPO 2306/2310 2500 HZ

Waarnemingen en weersverwachtingen van meer dan 4000 vliegvelden (METAR en TAF).

De beschikbare stations zijn de gele en rode punten op de kaart.

Ga met uw muis naar het station om de naam te zien.

Klik dan om waarnemingen en weersverwachtingen te zien.

kaart wijzigen: klik op de groene knoppen met een zwart kruis om in te zoomen, op de groene knop met een streepje om uit te zoomen of op de groene pijlen voor aangrenzende kaarten.


METAR-TAF: